Time,TemperatureF,DewpointF,PressureIn,WindDirection,WindDirectionDegrees,WindSpeedMPH,WindSpeedGustMPH,Humidity,HourlyPrecipIn,Conditions,Clouds,dailyrainin,SoftwareType,DateUTC
2013-02-15 00:00:00,39.0,31.8,30.00,NW,304,0.0,4.0,75,0.00,,---,0.00,VWS V14.01,2013-02-15 05:00:00,
2013-02-15 00:01:00,39.0,31.8,30.00,NW,304,0.0,0.0,75,0.00,,---,0.00,VWS V14.01,2013-02-15 05:01:00,
2013-02-15 00:02:00,38.9,31.7,30.00,NW,304,0.0,0.0,75,0.00,,---,0.00,VWS V14.01,2013-02-15 05:02:00,
2013-02-15 00:07:00,38.7,31.5,30.00,NW,304,0.0,0.0,75,0.00,,---,0.00,VWS V14.01,2013-02-15 05:07:00,
2013-02-15 00:12:00,38.4,31.2,30.00,NW,304,0.0,0.0,75,0.00,,---,0.00,VWS V14.01,2013-02-15 05:12:00,
2013-02-15 00:17:00,38.1,31.2,30.00,NW,304,0.0,0.0,76,0.00,,---,0.00,VWS V14.01,2013-02-15 05:17:00,
2013-02-15 00:22:00,37.8,30.9,30.00,NW,304,0.0,1.0,76,0.00,,---,0.00,VWS V14.01,2013-02-15 05:22:00,
2013-02-15 00:27:00,37.7,31.1,30.00,NW,304,0.0,0.0,77,0.00,,---,0.00,VWS V14.01,2013-02-15 05:27:00,
2013-02-15 00:32:00,37.5,31.0,29.99,NW,304,0.0,0.0,77,0.00,,---,0.00,VWS V14.01,2013-02-15 05:32:00,
2013-02-15 00:37:00,37.3,30.8,29.99,NW,304,0.0,1.0,77,0.00,,---,0.00,VWS V14.01,2013-02-15 05:37:00,
2013-02-15 00:42:00,37.1,30.6,29.99,NW,304,0.0,0.0,77,0.00,,---,0.00,VWS V14.01,2013-02-15 05:42:00,
2013-02-15 00:47:00,36.9,30.4,29.99,NW,304,0.0,0.0,77,0.00,,---,0.00,VWS V14.01,2013-02-15 05:47:00,
2013-02-15 00:52:00,36.6,30.4,29.99,NW,304,0.0,0.0,78,0.00,,---,0.00,VWS V14.01,2013-02-15 05:52:00,
2013-02-15 00:57:00,36.4,30.2,29.99,NW,304,0.0,0.0,78,0.00,,---,0.00,VWS V14.01,2013-02-15 05:57:00,
2013-02-15 01:02:00,36.1,29.9,29.99,NW,304,0.0,0.0,78,0.00,,---,0.00,VWS V14.01,2013-02-15 06:02:00,
2013-02-15 01:07:00,35.9,30.0,29.99,NW,304,0.0,0.0,79,0.00,,---,0.00,VWS V14.01,2013-02-15 06:07:00,
2013-02-15 01:12:00,35.7,29.8,29.99,NW,304,0.0,0.0,79,0.00,,---,0.00,VWS V14.01,2013-02-15 06:12:00,
2013-02-15 01:17:00,35.5,29.6,29.99,NW,304,0.0,0.0,79,0.00,,---,0.00,VWS V14.01,2013-02-15 06:17:00,
2013-02-15 01:22:00,35.1,29.6,29.99,NW,304,0.0,0.0,80,0.00,,---,0.00,VWS V14.01,2013-02-15 06:22:00,
2013-02-15 01:27:00,34.9,29.4,29.99,NW,304,0.0,0.0,80,0.00,,---,0.00,VWS V14.01,2013-02-15 06:27:00,
2013-02-15 01:32:00,34.7,29.5,30.00,NW,304,0.0,0.0,81,0.00,,---,0.00,VWS V14.01,2013-02-15 06:32:00,
2013-02-15 01:35:00,34.6,29.4,30.00,NW,304,0.0,0.0,81,0.00,,---,0.00,VWS V14.01,2013-02-15 06:35:00,
2013-02-15 01:40:00,34.3,29.1,30.00,NW,304,0.0,0.0,81,0.00,,---,0.00,VWS V14.01,2013-02-15 06:40:00,
2013-02-15 01:45:00,33.9,29.0,30.00,NW,304,0.0,0.0,82,0.00,,---,0.00,VWS V14.01,2013-02-15 06:45:00,
2013-02-15 01:50:00,33.6,28.7,30.00,NW,304,0.0,0.0,82,0.00,,---,0.00,VWS V14.01,2013-02-15 06:50:00,
2013-02-15 01:55:00,33.4,28.8,29.99,NW,304,0.0,0.0,83,0.00,,---,0.00,VWS V14.01,2013-02-15 06:55:00,
2013-02-15 02:00:00,33.4,28.8,29.99,NW,304,0.0,0.0,83,0.00,,---,0.00,VWS V14.01,2013-02-15 07:00:00,
2013-02-15 02:05:00,33.4,29.1,29.99,NW,304,0.0,0.0,84,0.00,,---,0.00,VWS V14.01,2013-02-15 07:05:00,
2013-02-15 02:10:00,33.6,29.3,29.99,NW,304,0.0,0.0,84,0.00,,---,0.00,VWS V14.01,2013-02-15 07:10:00,
2013-02-15 02:15:00,33.5,28.9,29.99,NW,304,0.0,0.0,83,0.00,,---,0.00,VWS V14.01,2013-02-15 07:15:00,
2013-02-15 02:21:00,33.4,28.8,29.99,NW,304,0.0,0.0,83,0.00,,---,0.00,VWS V14.01,2013-02-15 07:21:00,
2013-02-15 02:26:00,33.1,28.5,30.00,NW,304,0.0,0.0,83,0.00,,---,0.00,VWS V14.01,2013-02-15 07:26:00,
2013-02-15 02:31:00,32.8,28.5,29.99,NW,304,0.0,0.0,84,0.00,,---,0.00,VWS V14.01,2013-02-15 07:31:00,
2013-02-15 02:36:00,32.5,28.2,29.99,NW,304,0.0,0.0,84,0.00,,---,0.00,VWS V14.01,2013-02-15 07:36:00,
2013-02-15 02:41:00,32.3,28.3,30.00,NW,304,0.0,0.0,85,0.00,,---,0.00,VWS V14.01,2013-02-15 07:41:00,
2013-02-15 02:46:00,32.2,28.2,29.99,NW,304,0.0,0.0,85,0.00,,---,0.00,VWS V14.01,2013-02-15 07:46:00,
2013-02-15 02:51:00,32.3,28.6,29.99,NW,304,0.0,0.0,86,0.00,,---,0.00,VWS V14.01,2013-02-15 07:51:00,
2013-02-15 02:56:00,32.2,28.5,29.99,NW,304,0.0,0.0,86,0.00,,---,0.00,VWS V14.01,2013-02-15 07:56:00,
2013-02-15 03:01:00,32.1,28.4,29.99,NW,304,0.0,0.0,86,0.00,,---,0.00,VWS V14.01,2013-02-15 08:01:00,
2013-02-15 03:06:00,32.0,28.0,30.00,NW,304,0.0,0.0,85,0.00,,---,0.00,VWS V14.01,2013-02-15 08:06:00,
2013-02-15 03:11:00,31.6,27.6,30.00,NW,304,0.0,0.0,85,0.00,,---,0.00,VWS V14.01,2013-02-15 08:11:00,
2013-02-15 03:16:00,31.4,27.7,30.00,NW,304,0.0,0.0,86,0.00,,---,0.00,VWS V14.01,2013-02-15 08:16:00,
2013-02-15 03:21:00,31.3,27.9,30.00,NW,304,0.0,0.0,87,0.00,,---,0.00,VWS V14.01,2013-02-15 08:21:00,
2013-02-15 03:26:00,31.1,27.7,30.00,NW,304,0.0,0.0,87,0.00,,---,0.00,VWS V14.01,2013-02-15 08:26:00,
2013-02-15 03:31:00,30.9,27.5,30.00,NW,304,0.0,0.0,87,0.00,,---,0.00,VWS V14.01,2013-02-15 08:31:00,
2013-02-15 03:36:00,30.8,27.7,30.00,NW,304,0.0,0.0,88,0.00,,---,0.00,VWS V14.01,2013-02-15 08:36:00,
2013-02-15 03:41:00,30.7,27.6,30.00,NW,304,0.0,0.0,88,0.00,,---,0.00,VWS V14.01,2013-02-15 08:41:00,
2013-02-15 03:46:00,30.6,27.5,29.99,NW,304,0.0,0.0,88,0.00,,---,0.00,VWS V14.01,2013-02-15 08:46:00,
2013-02-15 03:51:00,30.5,27.4,30.00,NW,304,0.0,0.0,88,0.00,,---,0.00,VWS V14.01,2013-02-15 08:51:00,
2013-02-15 03:57:00,30.5,27.6,30.00,NW,304,0.0,0.0,89,0.00,,---,0.00,VWS V14.01,2013-02-15 08:57:00,
2013-02-15 04:02:00,30.5,27.6,30.00,NW,304,0.0,0.0,89,0.00,,---,0.00,VWS V14.01,2013-02-15 09:02:00,
2013-02-15 04:07:00,30.4,27.5,30.00,NW,304,0.0,0.0,89,0.00,,---,0.00,VWS V14.01,2013-02-15 09:07:00,
2013-02-15 04:12:00,30.4,27.5,30.00,NW,304,0.0,0.0,89,0.00,,---,0.00,VWS V14.01,2013-02-15 09:12:00,
2013-02-15 04:17:00,30.5,27.9,30.00,NW,304,0.0,0.0,90,0.00,,---,0.00,VWS V14.01,2013-02-15 09:17:00,
2013-02-15 04:22:00,30.7,28.1,30.00,NW,304,0.0,0.0,90,0.00,,---,0.00,VWS V14.01,2013-02-15 09:22:00,
2013-02-15 04:27:00,30.8,28.2,30.00,NW,304,0.0,0.0,90,0.00,,---,0.00,VWS V14.01,2013-02-15 09:27:00,
2013-02-15 04:32:00,30.9,28.3,30.01,NW,304,0.0,0.0,90,0.00,,---,0.00,VWS V14.01,2013-02-15 09:32:00,
2013-02-15 04:37:00,30.8,28.0,30.01,NW,304,0.0,0.0,89,0.00,,---,0.00,VWS V14.01,2013-02-15 09:37:00,
2013-02-15 04:42:00,30.7,27.9,30.01,NW,304,0.0,0.0,89,0.00,,---,0.00,VWS V14.01,2013-02-15 09:42:00,
2013-02-15 04:48:00,30.6,27.8,30.01,NW,304,0.0,0.0,89,0.00,,---,0.00,VWS V14.01,2013-02-15 09:48:00,
2013-02-15 04:53:00,30.5,27.6,30.01,NW,304,0.0,0.0,89,0.00,,---,0.00,VWS V14.01,2013-02-15 09:53:00,
2013-02-15 04:58:00,30.5,27.6,30.01,NW,304,0.0,0.0,89,0.00,,---,0.00,VWS V14.01,2013-02-15 09:58:00,
2013-02-15 05:03:00,30.3,27.5,30.01,NW,304,0.0,0.0,89,0.00,,---,0.00,VWS V14.01,2013-02-15 10:03:00,
2013-02-15 05:08:00,30.2,27.6,30.01,NW,304,0.0,0.0,90,0.00,,---,0.00,VWS V14.01,2013-02-15 10:08:00,
2013-02-15 05:13:00,30.1,27.5,30.01,NW,304,0.0,0.0,90,0.00,,---,0.00,VWS V14.01,2013-02-15 10:13:00,
2013-02-15 05:18:00,30.1,27.5,30.01,NW,304,0.0,0.0,90,0.00,,---,0.00,VWS V14.01,2013-02-15 10:18:00,
2013-02-15 05:23:00,30.0,27.4,30.02,NW,304,0.0,0.0,90,0.00,,---,0.00,VWS V14.01,2013-02-15 10:23:00,
2013-02-15 05:28:00,30.1,27.5,30.01,NW,304,0.0,0.0,90,0.00,,---,0.00,VWS V14.01,2013-02-15 10:28:00,
2013-02-15 05:33:00,30.3,27.7,30.02,NW,304,0.0,0.0,90,0.00,,---,0.00,VWS V14.01,2013-02-15 10:33:00,
2013-02-15 05:38:00,30.3,27.7,30.02,NW,304,0.0,0.0,90,0.00,,---,0.00,VWS V14.01,2013-02-15 10:38:00,
2013-02-15 05:43:00,30.4,27.8,30.01,NW,304,0.0,0.0,90,0.00,,---,0.00,VWS V14.01,2013-02-15 10:43:00,
2013-02-15 05:48:00,30.3,27.7,30.02,NW,304,0.0,0.0,90,0.00,,---,0.00,VWS V14.01,2013-02-15 10:48:00,
2013-02-15 05:53:00,30.4,27.8,30.02,NW,304,0.0,0.0,90,0.00,,---,0.00,VWS V14.01,2013-02-15 10:53:00,
2013-02-15 05:58:00,30.3,27.7,30.02,NW,304,0.0,0.0,90,0.00,,---,0.00,VWS V14.01,2013-02-15 10:58:00,
2013-02-15 06:03:00,30.1,27.3,30.02,NW,304,0.0,0.0,89,0.00,,---,0.00,VWS V14.01,2013-02-15 11:03:00,
2013-02-15 06:08:00,30.0,27.4,30.02,NW,304,0.0,0.0,90,0.00,,---,0.00,VWS V14.01,2013-02-15 11:08:00,
2013-02-15 06:13:00,30.0,27.4,30.02,NW,304,0.0,0.0,90,0.00,,---,0.00,VWS V14.01,2013-02-15 11:13:00,
2013-02-15 06:18:00,30.0,27.4,30.03,NW,304,0.0,0.0,90,0.00,,---,0.00,VWS V14.01,2013-02-15 11:18:00,
2013-02-15 06:23:00,30.0,27.4,30.03,NW,304,0.0,0.0,90,0.00,,---,0.00,VWS V14.01,2013-02-15 11:23:00,
2013-02-15 06:28:00,30.1,27.5,30.03,NW,304,0.0,0.0,90,0.00,,---,0.00,VWS V14.01,2013-02-15 11:28:00,
2013-02-15 06:33:00,30.3,27.7,30.03,NW,304,0.0,0.0,90,0.00,,---,0.00,VWS V14.01,2013-02-15 11:33:00,
2013-02-15 06:38:00,30.4,27.8,30.03,NW,304,0.0,0.0,90,0.00,,---,0.00,VWS V14.01,2013-02-15 11:38:00,
2013-02-15 06:43:00,30.4,27.8,30.03,NW,304,0.0,0.0,90,0.00,,---,0.00,VWS V14.01,2013-02-15 11:43:00,
2013-02-15 06:48:00,30.3,27.7,30.03,NW,304,0.0,0.0,90,0.00,,---,0.00,VWS V14.01,2013-02-15 11:48:00,
2013-02-15 06:53:00,30.3,27.7,30.04,NW,304,0.0,0.0,90,0.00,,---,0.00,VWS V14.01,2013-02-15 11:53:00,
2013-02-15 06:58:00,30.4,27.8,30.04,NW,304,0.0,0.0,90,0.00,,---,0.00,VWS V14.01,2013-02-15 11:58:00,
2013-02-15 07:03:00,30.6,28.3,30.04,NW,304,0.0,0.0,91,0.00,,---,0.00,VWS V14.01,2013-02-15 12:03:00,
2013-02-15 07:08:00,30.7,28.1,30.04,NW,304,0.0,0.0,90,0.00,,---,0.00,VWS V14.01,2013-02-15 12:08:00,
2013-02-15 07:13:00,30.7,28.1,30.04,NW,304,0.0,0.0,90,0.00,,---,0.00,VWS V14.01,2013-02-15 12:13:00,
2013-02-15 07:18:00,30.6,28.0,30.04,NW,304,0.0,0.0,90,0.00,,---,0.00,VWS V14.01,2013-02-15 12:18:00,
2013-02-15 07:23:00,30.6,28.0,30.04,NW,304,0.0,0.0,90,0.00,,---,0.00,VWS V14.01,2013-02-15 12:23:00,
2013-02-15 07:28:00,30.6,28.0,30.05,NW,304,0.0,0.0,90,0.00,,---,0.00,VWS V14.01,2013-02-15 12:28:00,
2013-02-15 07:33:00,30.6,28.0,30.05,NW,304,0.0,0.0,90,0.00,,---,0.00,VWS V14.01,2013-02-15 12:33:00,
2013-02-15 07:38:00,30.8,28.2,30.05,NW,304,0.0,0.0,90,0.00,,---,0.00,VWS V14.01,2013-02-15 12:38:00,
2013-02-15 07:43:00,30.9,28.3,30.05,NW,304,0.0,0.0,90,0.00,,---,0.00,VWS V14.01,2013-02-15 12:43:00,
2013-02-15 07:48:00,30.9,28.3,30.05,NW,304,0.0,0.0,90,0.00,,---,0.00,VWS V14.01,2013-02-15 12:48:00,
2013-02-15 07:53:00,31.0,28.4,30.05,NW,304,0.0,0.0,90,0.00,,---,0.00,VWS V14.01,2013-02-15 12:53:00,
2013-02-15 07:58:00,31.0,28.4,30.05,NW,304,0.0,0.0,90,0.00,,---,0.00,VWS V14.01,2013-02-15 12:58:00,
2013-02-15 08:03:00,31.1,28.5,30.05,NW,304,0.0,0.0,90,0.00,,---,0.00,VWS V14.01,2013-02-15 13:03:00,
2013-02-15 08:08:00,31.2,28.3,30.06,NW,304,0.0,0.0,89,0.00,,---,0.00,VWS V14.01,2013-02-15 13:08:00,
2013-02-15 08:13:00,31.4,28.8,30.06,NW,304,0.0,0.0,90,0.00,,---,0.00,VWS V14.01,2013-02-15 13:13:00,
2013-02-15 08:18:00,31.6,28.7,30.06,NW,304,0.0,0.0,89,0.00,,---,0.00,VWS V14.01,2013-02-15 13:18:00,
2013-02-15 08:23:00,31.9,29.0,30.06,NW,304,0.0,0.0,89,0.00,,---,0.00,VWS V14.01,2013-02-15 13:23:00,
2013-02-15 08:28:00,32.1,29.2,30.07,NW,304,0.0,0.0,89,0.00,,---,0.00,VWS V14.01,2013-02-15 13:28:00,
2013-02-15 08:33:00,32.3,29.1,30.07,NW,304,0.0,0.0,88,0.00,,---,0.00,VWS V14.01,2013-02-15 13:33:00,
2013-02-15 08:38:00,32.5,29.4,30.07,NW,304,0.0,0.0,88,0.00,,---,0.00,VWS V14.01,2013-02-15 13:38:00,
2013-02-15 08:43:00,32.8,29.4,30.07,NW,304,0.0,0.0,87,0.00,,---,0.00,VWS V14.01,2013-02-15 13:43:00,
2013-02-15 08:48:00,33.0,29.6,30.07,NW,304,0.0,1.0,87,0.00,,---,0.00,VWS V14.01,2013-02-15 13:48:00,
2013-02-15 08:53:00,33.3,29.6,30.07,NW,304,0.0,1.0,86,0.00,,---,0.00,VWS V14.01,2013-02-15 13:53:00,
2013-02-15 08:58:00,33.6,30.1,30.07,NW,304,0.0,2.0,87,0.00,,---,0.00,VWS V14.01,2013-02-15 13:58:00,
2013-02-15 09:03:00,33.9,30.2,30.07,NW,304,0.0,0.0,86,0.00,,---,0.00,VWS V14.01,2013-02-15 14:03:00,
2013-02-15 09:08:00,34.3,30.6,30.07,NW,304,0.0,1.0,86,0.00,,---,0.00,VWS V14.01,2013-02-15 14:08:00,
2013-02-15 09:13:00,34.7,30.4,30.07,West,262,0.0,1.0,84,0.00,,---,0.00,VWS V14.01,2013-02-15 14:13:00,
2013-02-15 09:19:00,35.1,30.8,30.07,West,259,2.0,3.0,84,0.00,,---,0.00,VWS V14.01,2013-02-15 14:19:00,
2013-02-15 09:24:00,35.4,30.5,30.07,WSW,247,2.0,4.0,82,0.00,,---,0.00,VWS V14.01,2013-02-15 14:24:00,
2013-02-15 09:29:00,35.6,30.4,30.08,WSW,252,2.0,4.0,81,0.00,,---,0.00,VWS V14.01,2013-02-15 14:29:00,
2013-02-15 09:34:00,35.8,30.2,30.07,WNW,300,0.0,5.0,80,0.00,,---,0.00,VWS V14.01,2013-02-15 14:34:00,
2013-02-15 09:39:00,35.9,30.6,30.07,WNW,285,3.0,5.0,81,0.00,,---,0.00,VWS V14.01,2013-02-15 14:39:00,
2013-02-15 09:44:00,35.9,31.0,30.08,West,265,0.0,0.0,82,0.00,,---,0.00,VWS V14.01,2013-02-15 14:44:00,
2013-02-15 09:49:00,35.9,31.0,30.07,WSW,252,4.0,5.0,82,0.00,,---,0.00,VWS V14.01,2013-02-15 14:49:00,
2013-02-15 09:54:00,35.8,30.9,30.07,WNW,292,0.0,3.0,82,0.00,,---,0.00,VWS V14.01,2013-02-15 14:54:00,
2013-02-15 09:59:00,35.9,31.0,30.07,West,266,4.0,7.0,82,0.00,,---,0.00,VWS V14.01,2013-02-15 14:59:00,
2013-02-15 10:04:00,35.8,30.9,30.07,WNW,303,3.0,5.0,82,0.00,,---,0.00,VWS V14.01,2013-02-15 15:04:00,
2013-02-15 10:09:00,36.1,31.1,30.07,West,260,2.0,2.0,82,0.00,,---,0.00,VWS V14.01,2013-02-15 15:09:00,
2013-02-15 10:14:00,36.1,31.1,30.07,South,184,3.0,3.0,82,0.00,,---,0.00,VWS V14.01,2013-02-15 15:14:00,
2013-02-15 10:20:00,36.3,31.3,30.07,West,264,2.0,3.0,82,0.00,,---,0.00,VWS V14.01,2013-02-15 15:20:00,
2013-02-15 10:25:00,36.3,31.3,30.07,WSW,250,3.0,3.0,82,0.00,,---,0.00,VWS V14.01,2013-02-15 15:25:00,
2013-02-15 10:30:00,36.4,31.1,30.07,WSW,258,5.0,6.0,81,0.00,,---,0.00,VWS V14.01,2013-02-15 15:30:00,
2013-02-15 10:35:00,36.5,31.5,30.07,SW,223,2.0,6.0,82,0.00,,---,0.00,VWS V14.01,2013-02-15 15:35:00,
2013-02-15 10:40:00,36.6,31.6,30.07,WSW,246,0.0,3.0,82,0.00,,---,0.00,VWS V14.01,2013-02-15 15:40:00,
2013-02-15 10:45:00,36.7,31.4,30.07,WSW,254,2.0,3.0,81,0.00,,---,0.00,VWS V14.01,2013-02-15 15:45:00,
2013-02-15 10:50:00,36.9,31.3,30.07,WSW,252,2.0,6.0,80,0.00,,---,0.00,VWS V14.01,2013-02-15 15:50:00,
2013-02-15 10:55:00,37.0,31.1,30.07,WNW,288,4.0,4.0,79,0.00,,---,0.00,VWS V14.01,2013-02-15 15:55:00,
2013-02-15 11:00:00,37.3,31.1,30.07,WSW,239,3.0,6.0,78,0.00,,---,0.00,VWS V14.01,2013-02-15 16:00:00,
2013-02-15 11:06:00,37.3,31.1,30.07,West,265,0.0,3.0,78,0.00,,---,0.00,VWS V14.01,2013-02-15 16:06:00,
2013-02-15 11:11:00,37.6,31.7,30.07,SW,230,1.0,5.0,79,0.00,,---,0.00,VWS V14.01,2013-02-15 16:11:00,
2013-02-15 11:16:00,37.8,31.2,30.07,West,264,0.0,2.0,77,0.00,,---,0.00,VWS V14.01,2013-02-15 16:16:00,
2013-02-15 11:21:00,38.2,32.0,30.07,SW,225,2.0,5.0,78,0.00,,---,0.00,VWS V14.01,2013-02-15 16:21:00,
2013-02-15 11:26:00,38.4,31.5,30.06,WNW,296,2.0,4.0,76,0.00,,---,0.00,VWS V14.01,2013-02-15 16:26:00,
2013-02-15 11:31:00,38.5,31.6,30.06,SW,231,3.0,3.0,76,0.00,,---,0.00,VWS V14.01,2013-02-15 16:31:00,
2013-02-15 11:36:00,38.5,31.3,30.07,WNW,296,2.0,4.0,75,0.00,,---,0.00,VWS V14.01,2013-02-15 16:36:00,
2013-02-15 11:41:00,38.8,31.9,30.06,West,265,3.0,5.0,76,0.00,,---,0.00,VWS V14.01,2013-02-15 16:41:00,
2013-02-15 11:46:00,39.0,31.4,30.06,WNW,297,3.0,8.0,74,0.00,,---,0.00,VWS V14.01,2013-02-15 16:46:00,
2013-02-15 11:51:00,39.4,31.5,30.06,West,279,1.0,5.0,73,0.00,,---,0.00,VWS V14.01,2013-02-15 16:51:00,
2013-02-15 11:56:00,39.7,31.4,30.06,NW,304,3.0,5.0,72,0.00,,---,0.00,VWS V14.01,2013-02-15 16:56:00,
2013-02-15 12:01:00,39.9,31.3,30.06,WSW,258,9.0,10.0,71,0.00,,---,0.00,VWS V14.01,2013-02-15 17:01:00,
2013-02-15 12:06:00,39.5,30.5,30.06,WSW,248,5.0,6.0,70,0.00,,---,0.00,VWS V14.01,2013-02-15 17:06:00,
2013-02-15 12:11:00,39.0,30.8,30.06,SSW,202,0.0,4.0,72,0.00,,---,0.00,VWS V14.01,2013-02-15 17:11:00,
2013-02-15 12:16:00,38.9,31.0,30.06,WNW,291,1.0,5.0,73,0.00,,---,0.00,VWS V14.01,2013-02-15 17:16:00,
2013-02-15 12:21:00,38.9,30.7,30.06,West,259,2.0,4.0,72,0.00,,---,0.00,VWS V14.01,2013-02-15 17:21:00,
2013-02-15 12:26:00,39.1,31.2,30.06,WNW,297,4.0,4.0,73,0.00,,---,0.00,VWS V14.01,2013-02-15 17:26:00,
2013-02-15 12:31:00,39.2,29.9,30.06,West,270,1.0,2.0,69,0.00,,---,0.00,VWS V14.01,2013-02-15 17:31:00,
2013-02-15 12:36:00,39.2,30.2,30.06,WSW,250,3.0,4.0,70,0.00,,---,0.00,VWS V14.01,2013-02-15 17:36:00,
2013-02-15 12:42:00,39.3,29.6,30.06,WNW,286,2.0,7.0,68,0.00,,---,0.00,VWS V14.01,2013-02-15 17:42:00,
2013-02-15 12:47:00,39.2,29.5,30.06,WNW,298,2.0,5.0,68,0.00,,---,0.00,VWS V14.01,2013-02-15 17:47:00,
2013-02-15 12:53:00,39.3,29.6,30.06,SW,235,3.0,7.0,68,0.00,,---,0.00,VWS V14.01,2013-02-15 17:53:00,
2013-02-15 12:58:00,39.4,30.1,30.06,WNW,284,2.0,5.0,69,0.00,,---,0.00,VWS V14.01,2013-02-15 17:58:00,
2013-02-15 13:03:00,39.5,29.8,30.05,WNW,302,0.0,3.0,68,0.00,,---,0.00,VWS V14.01,2013-02-15 18:03:00,
2013-02-15 13:08:00,39.7,29.7,30.05,WNW,291,3.0,4.0,67,0.00,,---,0.00,VWS V14.01,2013-02-15 18:08:00,
2013-02-15 13:13:00,39.5,29.8,30.05,NW,313,2.0,6.0,68,0.00,,---,0.00,VWS V14.01,2013-02-15 18:13:00,
2013-02-15 13:18:00,39.3,30.0,30.05,NW,315,2.0,4.0,69,0.00,,---,0.00,VWS V14.01,2013-02-15 18:18:00,
2013-02-15 13:23:00,39.3,30.0,30.05,WNW,290,3.0,7.0,69,0.00,,---,0.00,VWS V14.01,2013-02-15 18:23:00,
2013-02-15 13:28:00,39.5,30.9,30.05,North,5,4.0,8.0,71,0.00,,---,0.00,VWS V14.01,2013-02-15 18:28:00,
2013-02-15 13:33:00,39.8,30.8,30.05,WNW,294,0.0,3.0,70,0.00,,---,0.00,VWS V14.01,2013-02-15 18:33:00,
2013-02-15 13:38:00,40.4,30.7,30.05,West,266,0.0,5.0,68,0.00,,---,0.00,VWS V14.01,2013-02-15 18:38:00,
2013-02-15 13:43:00,40.1,29.3,30.04,West,273,0.0,6.0,65,0.00,,---,0.00,VWS V14.01,2013-02-15 18:43:00,
2013-02-15 13:48:00,39.7,30.0,30.04,NW,304,3.0,5.0,68,0.00,,---,0.00,VWS V14.01,2013-02-15 18:48:00,
2013-02-15 13:53:00,39.7,29.7,30.05,West,279,0.0,5.0,67,0.00,,---,0.00,VWS V14.01,2013-02-15 18:53:00,
2013-02-15 13:58:00,40.4,30.3,30.04,WNW,286,2.0,6.0,67,0.00,,---,0.00,VWS V14.01,2013-02-15 18:58:00,
2013-02-15 14:03:00,40.3,28.7,30.04,WSW,246,0.0,6.0,63,0.00,,---,0.00,VWS V14.01,2013-02-15 19:03:00,
2013-02-15 14:08:00,40.1,28.9,30.05,NNE,33,0.0,4.0,64,0.00,,---,0.00,VWS V14.01,2013-02-15 19:08:00,
2013-02-15 14:13:00,39.5,30.2,30.05,WNW,284,3.0,5.0,69,0.00,,---,0.00,VWS V14.01,2013-02-15 19:13:00,
2013-02-15 14:18:00,38.8,30.2,30.05,NW,308,3.0,4.0,71,0.00,,---,0.00,VWS V14.01,2013-02-15 19:18:00,
2013-02-15 14:23:00,38.9,30.0,30.04,WNW,300,2.0,5.0,70,0.00,,---,0.00,VWS V14.01,2013-02-15 19:23:00,
2013-02-15 14:28:00,39.5,29.1,30.04,WNW,288,0.0,3.0,66,0.00,,---,0.00,VWS V14.01,2013-02-15 19:28:00,
2013-02-15 14:33:00,40.1,29.3,30.04,WSW,254,2.0,6.0,65,0.00,,---,0.00,VWS V14.01,2013-02-15 19:33:00,
2013-02-15 14:38:00,40.1,28.9,30.04,NW,304,3.0,6.0,64,0.00,,---,0.00,VWS V14.01,2013-02-15 19:38:00,
2013-02-15 14:43:00,40.0,28.8,30.04,NW,319,0.0,3.0,64,0.00,,---,0.00,VWS V14.01,2013-02-15 19:43:00,
2013-02-15 14:48:00,39.8,28.6,30.04,WSW,252,5.0,6.0,64,0.00,,---,0.00,VWS V14.01,2013-02-15 19:48:00,
2013-02-15 14:53:00,39.5,28.7,30.04,WNW,296,3.0,3.0,65,0.00,,---,0.00,VWS V14.01,2013-02-15 19:53:00,
2013-02-15 14:58:00,39.6,28.8,30.04,WNW,296,0.0,3.0,65,0.00,,---,0.00,VWS V14.01,2013-02-15 19:58:00,
2013-02-15 15:03:00,39.5,28.4,30.04,West,276,0.0,3.0,64,0.00,,---,0.00,VWS V14.01,2013-02-15 20:03:00,
2013-02-15 15:08:00,39.4,28.6,30.04,WNW,284,1.0,4.0,65,0.00,,---,0.00,VWS V14.01,2013-02-15 20:08:00,
2013-02-15 15:13:00,39.6,28.8,30.04,NNW,327,1.0,4.0,65,0.00,,---,0.00,VWS V14.01,2013-02-15 20:13:00,
2013-02-15 15:18:00,40.2,28.6,30.04,NW,314,0.0,5.0,63,0.00,,---,0.00,VWS V14.01,2013-02-15 20:18:00,
2013-02-15 15:24:00,41.2,28.8,30.04,NW,308,1.0,5.0,61,0.00,,---,0.00,VWS V14.01,2013-02-15 20:24:00,
2013-02-15 15:29:00,41.2,27.6,30.04,NW,319,4.0,5.0,58,0.00,,---,0.00,VWS V14.01,2013-02-15 20:29:00,
2013-02-15 15:34:00,40.9,27.3,30.04,NW,323,1.0,8.0,58,0.00,,---,0.00,VWS V14.01,2013-02-15 20:34:00,
2013-02-15 15:39:00,40.4,27.6,30.05,NW,308,0.0,2.0,60,0.00,,---,0.00,VWS V14.01,2013-02-15 20:39:00,
2013-02-15 15:44:00,40.1,27.8,30.05,NW,305,3.0,7.0,61,0.00,,---,0.00,VWS V14.01,2013-02-15 20:44:00,
2013-02-15 15:49:00,39.5,28.0,30.06,NW,321,0.0,10.0,63,0.00,,---,0.00,VWS V14.01,2013-02-15 20:49:00,
2013-02-15 15:54:00,39.2,27.7,30.06,NW,325,5.0,5.0,63,0.00,,---,0.00,VWS V14.01,2013-02-15 20:54:00,
2013-02-15 15:59:00,39.1,28.7,30.06,NNW,340,3.0,7.0,66,0.00,,---,0.00,VWS V14.01,2013-02-15 20:59:00,
2013-02-15 16:04:00,38.6,30.0,30.06,NNE,23,1.0,6.0,71,0.00,,---,0.00,VWS V14.01,2013-02-15 21:04:00,
2013-02-15 16:09:00,38.4,30.2,30.06,WNW,300,3.0,8.0,72,0.00,,---,0.00,VWS V14.01,2013-02-15 21:09:00,
2013-02-15 16:14:00,38.2,29.6,30.06,NNE,24,0.0,5.0,71,0.00,,---,0.00,VWS V14.01,2013-02-15 21:14:00,
2013-02-15 16:19:00,38.1,29.5,30.06,NNW,338,4.0,4.0,71,0.00,,---,0.00,VWS V14.01,2013-02-15 21:19:00,
2013-02-15 16:24:00,38.1,29.5,30.07,NW,321,3.0,5.0,71,0.00,,---,0.00,VWS V14.01,2013-02-15 21:24:00,
2013-02-15 16:29:00,38.0,29.8,30.07,NNE,18,11.0,14.0,72,0.00,,---,0.00,VWS V14.01,2013-02-15 21:29:00,
2013-02-15 16:34:00,37.4,29.5,30.07,WNW,297,6.0,6.0,73,0.00,,---,0.00,VWS V14.01,2013-02-15 21:34:00,
2013-02-15 16:39:00,37.1,28.9,30.07,NNW,331,3.0,4.0,72,0.00,,---,0.00,VWS V14.01,2013-02-15 21:39:00,
2013-02-15 16:44:00,37.0,28.8,30.07,North,349,1.0,2.0,72,0.00,,---,0.00,VWS V14.01,2013-02-15 21:44:00,
2013-02-15 16:49:00,37.1,28.6,30.07,NW,319,2.0,7.0,71,0.00,,---,0.00,VWS V14.01,2013-02-15 21:49:00,
2013-02-15 16:54:00,37.3,28.8,30.07,WNW,302,0.0,3.0,71,0.00,,---,0.00,VWS V14.01,2013-02-15 21:54:00,
2013-02-15 16:59:00,37.8,28.9,30.07,WNW,292,3.0,4.0,70,0.00,,---,0.00,VWS V14.01,2013-02-15 21:59:00,
2013-02-15 17:04:00,38.3,28.7,30.07,WNW,284,2.0,6.0,68,0.00,,---,0.00,VWS V14.01,2013-02-15 22:04:00,
2013-02-15 17:09:00,38.3,27.2,30.07,North,355,1.0,6.0,64,0.00,,---,0.00,VWS V14.01,2013-02-15 22:09:00,
2013-02-15 17:14:00,38.0,26.5,30.07,WNW,295,1.0,5.0,63,0.00,,---,0.00,VWS V14.01,2013-02-15 22:14:00,
2013-02-15 17:19:00,37.6,26.5,30.07,NW,324,9.0,9.0,64,0.00,,---,0.00,VWS V14.01,2013-02-15 22:19:00,
2013-02-15 17:24:00,37.2,26.9,30.08,NW,319,3.0,7.0,66,0.00,,---,0.00,VWS V14.01,2013-02-15 22:24:00,
2013-02-15 17:29:00,36.9,25.9,30.08,NW,320,0.0,7.0,64,0.00,,---,0.00,VWS V14.01,2013-02-15 22:29:00,
2013-02-15 17:34:00,36.8,26.1,30.08,WNW,290,1.0,2.0,65,0.00,,---,0.00,VWS V14.01,2013-02-15 22:34:00,
2013-02-15 17:39:00,36.7,26.4,30.08,NNW,342,2.0,8.0,66,0.00,,---,0.00,VWS V14.01,2013-02-15 22:39:00,
2013-02-15 17:44:00,36.6,26.0,30.08,NW,317,0.0,2.0,65,0.00,,---,0.00,VWS V14.01,2013-02-15 22:44:00,
2013-02-15 17:49:00,36.5,25.9,30.08,WNW,296,6.0,6.0,65,0.00,,---,0.00,VWS V14.01,2013-02-15 22:49:00,
2013-02-15 17:54:00,36.4,26.5,30.09,NNW,339,1.0,5.0,67,0.00,,---,0.00,VWS V14.01,2013-02-15 22:54:00,
2013-02-15 17:59:00,36.1,26.9,30.09,North,5,0.0,9.0,69,0.00,,---,0.00,VWS V14.01,2013-02-15 22:59:00,
2013-02-15 18:05:00,35.5,26.4,30.09,NW,306,1.0,4.0,69,0.00,,---,0.00,VWS V14.01,2013-02-15 23:05:00,
2013-02-15 18:10:00,35.0,26.6,30.10,North,355,1.0,7.0,71,0.00,,---,0.00,VWS V14.01,2013-02-15 23:10:00,
2013-02-15 18:15:00,34.5,26.1,30.10,NW,322,2.0,5.0,71,0.00,,---,0.00,VWS V14.01,2013-02-15 23:15:00,
2013-02-15 18:20:00,34.0,25.3,30.10,North,355,0.0,6.0,70,0.00,,---,0.00,VWS V14.01,2013-02-15 23:20:00,
2013-02-15 18:25:00,33.8,25.4,30.10,NNW,334,3.0,7.0,71,0.00,,---,0.00,VWS V14.01,2013-02-15 23:25:00,
2013-02-15 18:30:00,33.5,25.8,30.10,NNW,341,7.0,7.0,73,0.00,,---,0.00,VWS V14.01,2013-02-15 23:30:00,
2013-02-15 18:35:00,33.3,25.9,30.11,NNW,331,1.0,7.0,74,0.00,,---,0.00,VWS V14.01,2013-02-15 23:35:00,
2013-02-15 18:40:00,33.0,25.6,30.11,NNW,337,3.0,11.0,74,0.00,,---,0.00,VWS V14.01,2013-02-15 23:40:00,
2013-02-15 18:46:00,32.6,25.2,30.11,NNE,19,0.0,7.0,74,0.00,,---,0.00,VWS V14.01,2013-02-15 23:46:00,
2013-02-15 18:51:00,32.4,25.4,30.12,NNW,341,0.0,2.0,75,0.00,,---,0.00,VWS V14.01,2013-02-15 23:51:00,
2013-02-15 18:56:00,32.3,25.3,30.12,NNW,328,4.0,5.0,75,0.00,,---,0.00,VWS V14.01,2013-02-15 23:56:00,
2013-02-15 19:01:00,32.0,25.0,30.12,NNE,15,0.0,3.0,75,0.00,,---,0.00,VWS V14.01,2013-02-16 00:01:00,
2013-02-15 19:07:00,31.8,24.8,30.12,NNE,17,1.0,4.0,75,0.00,,---,0.00,VWS V14.01,2013-02-16 00:07:00,
2013-02-15 19:12:00,31.6,24.6,30.12,NNW,342,1.0,3.0,75,0.00,,---,0.00,VWS V14.01,2013-02-16 00:12:00,
2013-02-15 19:18:00,31.5,24.8,30.13,NNW,346,1.0,5.0,76,0.00,,---,0.00,VWS V14.01,2013-02-16 00:18:00,
2013-02-15 19:23:00,31.5,24.8,30.13,NNW,333,4.0,4.0,76,0.00,,---,0.00,VWS V14.01,2013-02-16 00:23:00,
2013-02-15 19:28:00,31.5,24.8,30.13,NNW,344,2.0,4.0,76,0.00,,---,0.00,VWS V14.01,2013-02-16 00:28:00,
2013-02-15 19:33:00,31.6,25.2,30.13,North,5,3.0,6.0,77,0.00,,---,0.00,VWS V14.01,2013-02-16 00:33:00,
2013-02-15 19:38:00,31.7,25.0,30.13,NNE,33,3.0,8.0,76,0.00,,---,0.00,VWS V14.01,2013-02-16 00:38:00,
2013-02-15 19:44:00,31.7,25.0,30.13,North,355,1.0,3.0,76,0.00,,---,0.00,VWS V14.01,2013-02-16 00:44:00,
2013-02-15 19:49:00,31.6,24.9,30.14,North,355,0.0,1.0,76,0.00,,---,0.00,VWS V14.01,2013-02-16 00:49:00,
2013-02-15 19:54:00,31.6,25.2,30.14,North,360,0.0,2.0,77,0.00,,---,0.00,VWS V14.01,2013-02-16 00:54:00,
2013-02-15 19:59:00,31.5,24.8,30.13,NNE,12,0.0,1.0,76,0.00,,---,0.00,VWS V14.01,2013-02-16 00:59:00,
2013-02-15 20:04:00,31.5,24.5,30.14,North,11,0.0,3.0,75,0.00,,---,0.00,VWS V14.01,2013-02-16 01:04:00,
2013-02-15 20:10:00,31.4,24.1,30.14,NNE,18,2.0,3.0,74,0.00,,---,0.00,VWS V14.01,2013-02-16 01:10:00,
2013-02-15 20:16:00,31.4,24.1,30.14,NNE,18,0.0,0.0,74,0.00,,---,0.00,VWS V14.01,2013-02-16 01:16:00,
2013-02-15 20:21:00,31.4,24.1,30.14,NNE,18,0.0,0.0,74,0.00,,---,0.00,VWS V14.01,2013-02-16 01:21:00,
2013-02-15 20:26:00,31.4,24.1,30.14,NNE,18,0.0,0.0,74,0.00,,---,0.00,VWS V14.01,2013-02-16 01:26:00,
2013-02-15 20:31:00,31.4,24.1,30.14,NNE,18,0.0,0.0,74,0.00,,---,0.00,VWS V14.01,2013-02-16 01:31:00,
2013-02-15 20:36:00,31.4,24.1,30.14,NNE,18,0.0,0.0,74,0.00,,---,0.00,VWS V14.01,2013-02-16 01:36:00,
2013-02-15 20:41:00,31.4,24.1,30.14,NNE,18,0.0,0.0,74,0.00,,---,0.00,VWS V14.01,2013-02-16 01:41:00,
2013-02-15 20:46:00,31.4,24.1,30.14,NNE,18,0.0,0.0,74,0.00,,---,0.00,VWS V14.01,2013-02-16 01:46:00,
2013-02-15 20:51:00,31.4,24.1,30.14,NNE,18,0.0,0.0,74,0.00,,---,0.00,VWS V14.01,2013-02-16 01:51:00,
2013-02-15 20:56:00,30.7,23.4,30.13,NNW,330,0.0,2.0,74,0.00,,---,0.00,VWS V14.01,2013-02-16 01:56:00,
2013-02-15 21:01:00,30.6,23.3,30.13,NNW,346,0.0,1.0,74,0.00,,---,0.00,VWS V14.01,2013-02-16 02:01:00,
2013-02-15 21:06:00,30.3,23.3,30.13,NNW,347,0.0,3.0,75,0.00,,---,0.00,VWS V14.01,2013-02-16 02:06:00,
2013-02-15 21:11:00,30.1,23.5,30.14,North,349,0.0,1.0,76,0.00,,---,0.00,VWS V14.01,2013-02-16 02:11:00,
2013-02-15 21:16:00,29.9,23.3,30.14,NNW,346,2.0,5.0,76,0.00,,---,0.00,VWS V14.01,2013-02-16 02:16:00,
2013-02-15 21:21:00,29.8,23.5,30.14,North,5,0.0,5.0,77,0.00,,---,0.00,VWS V14.01,2013-02-16 02:21:00,
2013-02-15 21:26:00,29.7,23.4,30.14,NNW,335,4.0,4.0,77,0.00,,---,0.00,VWS V14.01,2013-02-16 02:26:00,
2013-02-15 21:31:00,29.6,23.3,30.14,North,5,0.0,1.0,77,0.00,,---,0.00,VWS V14.01,2013-02-16 02:31:00,
2013-02-15 21:36:00,29.4,23.1,30.14,North,9,4.0,6.0,77,0.00,,---,0.00,VWS V14.01,2013-02-16 02:36:00,
2013-02-15 21:41:00,29.3,23.3,30.14,NNE,12,1.0,2.0,78,0.00,,---,0.00,VWS V14.01,2013-02-16 02:41:00,
2013-02-15 21:46:00,29.2,23.2,30.14,North,5,1.0,5.0,78,0.00,,---,0.00,VWS V14.01,2013-02-16 02:46:00,
2013-02-15 21:51:00,29.1,23.1,30.14,NNW,336,0.0,0.0,78,0.00,,---,0.00,VWS V14.01,2013-02-16 02:51:00,
2013-02-15 21:56:00,28.9,22.9,30.14,NNW,336,0.0,0.0,78,0.00,,---,0.00,VWS V14.01,2013-02-16 02:56:00,
2013-02-15 22:01:00,28.8,23.1,30.14,NNW,336,0.0,1.0,79,0.00,,---,0.00,VWS V14.01,2013-02-16 03:01:00,
2013-02-15 22:07:00,28.7,23.0,30.14,North,355,0.0,0.0,79,0.00,,---,0.00,VWS V14.01,2013-02-16 03:07:00,
2013-02-15 22:12:00,28.6,22.9,30.14,North,355,0.0,0.0,79,0.00,,---,0.00,VWS V14.01,2013-02-16 03:12:00,
2013-02-15 22:17:00,28.4,22.7,30.14,North,355,0.0,0.0,79,0.00,,---,0.00,VWS V14.01,2013-02-16 03:17:00,
2013-02-15 22:22:00,28.2,22.8,30.14,North,355,0.0,0.0,80,0.00,,---,0.00,VWS V14.01,2013-02-16 03:22:00,
2013-02-15 22:27:00,28.0,22.6,30.14,North,355,0.0,0.0,80,0.00,,---,0.00,VWS V14.01,2013-02-16 03:27:00,
2013-02-15 22:32:00,27.9,22.5,30.14,North,355,0.0,0.0,80,0.00,,---,0.00,VWS V14.01,2013-02-16 03:32:00,
2013-02-15 22:37:00,27.6,22.5,30.14,North,355,0.0,0.0,81,0.00,,---,0.00,VWS V14.01,2013-02-16 03:37:00,
2013-02-15 22:42:00,27.5,22.5,30.14,North,355,0.0,0.0,81,0.00,,---,0.00,VWS V14.01,2013-02-16 03:42:00,
2013-02-15 22:47:00,27.4,22.6,30.14,North,355,0.0,0.0,82,0.00,,---,0.00,VWS V14.01,2013-02-16 03:47:00,
2013-02-15 22:52:00,27.2,22.1,30.14,North,355,0.0,0.0,81,0.00,,---,0.00,VWS V14.01,2013-02-16 03:52:00,
2013-02-15 22:57:00,27.2,22.4,30.14,North,355,0.0,0.0,82,0.00,,---,0.00,VWS V14.01,2013-02-16 03:57:00,
2013-02-15 23:02:00,27.1,22.4,30.14,North,355,0.0,0.0,82,0.00,,---,0.00,VWS V14.01,2013-02-16 04:02:00,
2013-02-15 23:07:00,27.0,22.2,30.14,North,355,0.0,0.0,82,0.00,,---,0.00,VWS V14.01,2013-02-16 04:07:00,
2013-02-15 23:12:00,26.9,22.1,30.14,North,355,0.0,0.0,82,0.00,,---,0.00,VWS V14.01,2013-02-16 04:12:00,
2013-02-15 23:17:00,26.8,22.0,30.14,NNW,348,0.0,0.0,82,0.00,,---,0.00,VWS V14.01,2013-02-16 04:17:00,
2013-02-15 23:23:00,26.7,22.0,30.14,North,350,0.0,0.0,82,0.00,,---,0.00,VWS V14.01,2013-02-16 04:23:00,
2013-02-15 23:28:00,26.6,21.9,30.14,North,350,0.0,0.0,82,0.00,,---,0.00,VWS V14.01,2013-02-16 04:28:00,
2013-02-15 23:33:00,26.6,21.9,30.14,North,350,0.0,0.0,82,0.00,,---,0.00,VWS V14.01,2013-02-16 04:33:00,
2013-02-15 23:38:00,26.6,21.6,30.14,North,355,0.0,0.0,81,0.00,,---,0.00,VWS V14.01,2013-02-16 04:38:00,
2013-02-15 23:43:00,26.5,21.5,30.14,North,355,0.0,0.0,81,0.00,,---,0.00,VWS V14.01,2013-02-16 04:43:00,
2013-02-15 23:48:00,26.4,21.4,30.14,North,355,0.0,0.0,81,0.00,,---,0.00,VWS V14.01,2013-02-16 04:48:00,
2013-02-15 23:53:00,26.2,21.2,30.14,North,355,0.0,0.0,81,0.00,,---,0.00,VWS V14.01,2013-02-16 04:53:00,
2013-02-15 23:58:00,26.1,21.4,30.14,North,355,0.0,0.0,82,0.00,,---,0.00,VWS V14.01,2013-02-16 04:58:00,